Главная страница
METAR-TAF:

METAR-TAF

Аэропорты :

Львов, Украина

широта: 49-49N, долгота: 023-57E, высота над уровнем моря: 319 м

Текущие метеонаблюдения

Эта сводка был подготовлена 35 минут назад, в 00:00 UTC
Штиль
Температура -4°C
Влажность 93%
Давление 1017 hPa
Видимость: 5000 м
дымка

METAR: UKLL 270000Z 00000MPS 5000 BR NSC M04/M05 Q1017 R13/D NOSIG

Время: 02:35 (00:35 UTC)

Прогноз

Эта сводка был подготовлена 1 час и 33 минут назад, в 23:02 UTC
Прогноз действительный с 27-го 00 UTC до 27-го 24 UTC
Ветер 2 Узел переменных направлений
Видимость: 2100 м
Рассеянная облачность на высоте 700 фута
дымка
временами
С 27-го 00 UTC до 27-го 06 UTC
Видимость: 0400 м
на высоте 100 фута
переохлажденный туман
временами
С 27-го 16 UTC до 27-го 24 UTC
Видимость: 0400 м
на высоте 100 фута
переохлажденный туман

TAF: UKLL 262302Z 2700/2724 VRB01MPS 2100 BR BKN007 TX05/2712Z TNM05/2704Z TEMPO 2700/2706 0400 FZFG VV001 TEMPO 2716/2724 0400 FZFG VV001

Метеонаблюдения и прогнозы для более 4000 аэропортов (сводки METAR и TAF).

Имеющиеся станции представлены на карте желтыми и красными точками.

Чтобы увидеть название станции, наведите на нее мышь.

Затем щелкните, чтобы увидеть метеонаблюдения и метеопрогнозы.

Управление картой: чтобы увеличить масштаб, щелкните зеленые кнопки с черным крестиком; чтобы уменьшить масштаб, щелкните зеленую кнопку с тире; для просмотра соседних карт щелкайте зеленые стрелки.


METAR-TAF: